sensor_id;sensor_type;location;lat;lon;timestamp;P1;durP1;ratioP1;P2;durP2;ratioP2
22648;SDS011;11491;41.942;24.220;2022-12-18T00:02:41;35.38;;;22.95;;
22648;SDS011;11491;41.942;24.220;2022-12-18T00:08:08;38.80;;;23.33;;
22648;SDS011;11491;41.942;24.220;2022-12-18T00:10:38;77.20;;;48.72;;
22648;SDS011;11491;41.942;24.220;2022-12-18T00:13:09;60.58;;;39.80;;
22648;SDS011;11491;41.942;24.220;2022-12-18T00:18:57;41.40;;;25.95;;
22648;SDS011;11491;41.942;24.220;2022-12-18T00:21:59;27.08;;;17.23;;
22648;SDS011;11491;41.942;24.220;2022-12-18T00:35:57;14.20;;;8.40;;
22648;SDS011;11491;41.942;24.220;2022-12-18T02:15:40;32.53;;;14.27;;
22648;SDS011;11491;41.942;24.220;2022-12-18T02:19:06;33.20;;;14.35;;
22648;SDS011;11491;41.942;24.220;2022-12-18T02:21:51;27.17;;;13.48;;
22648;SDS011;11491;41.942;24.220;2022-12-18T02:24:29;47.42;;;15.98;;
22648;SDS011;11491;41.942;24.220;2022-12-18T02:27:07;43.65;;;15.88;;
22648;SDS011;11491;41.942;24.220;2022-12-18T02:29:38;108.57;;;19.92;;
22648;SDS011;11491;41.942;24.220;2022-12-18T02:32:09;46.65;;;16.63;;
22648;SDS011;11491;41.942;24.220;2022-12-18T02:34:41;73.50;;;14.88;;
22648;SDS011;11491;41.942;24.220;2022-12-18T02:39:57;89.10;;;12.70;;
22648;SDS011;11491;41.942;24.220;2022-12-18T02:42:33;120.95;;;13.23;;
22648;SDS011;11491;41.942;24.220;2022-12-18T02:45:01;113.60;;;15.20;;
22648;SDS011;11491;41.942;24.220;2022-12-18T02:47:31;72.10;;;14.73;;
22648;SDS011;11491;41.942;24.220;2022-12-18T02:50:05;103.32;;;19.33;;
22648;SDS011;11491;41.942;24.220;2022-12-18T02:52:41;123.38;;;20.80;;
22648;SDS011;11491;41.942;24.220;2022-12-18T02:55:18;145.90;;;21.85;;
22648;SDS011;11491;41.942;24.220;2022-12-18T02:57:56;149.02;;;20.10;;
22648;SDS011;11491;41.942;24.220;2022-12-18T03:00:27;83.68;;;16.55;;
22648;SDS011;11491;41.942;24.220;2022-12-18T03:03:02;58.60;;;12.95;;
22648;SDS011;11491;41.942;24.220;2022-12-18T03:05:37;53.38;;;12.35;;
22648;SDS011;11491;41.942;24.220;2022-12-18T03:08:08;64.72;;;11.48;;
22648;SDS011;11491;41.942;24.220;2022-12-18T03:10:41;33.40;;;9.80;;
22648;SDS011;11491;41.942;24.220;2022-12-18T03:13:17;45.05;;;11.27;;
22648;SDS011;11491;41.942;24.220;2022-12-18T03:15:51;37.15;;;16.08;;
22648;SDS011;11491;41.942;24.220;2022-12-18T03:18:24;28.45;;;12.52;;
22648;SDS011;11491;41.942;24.220;2022-12-18T03:20:58;75.40;;;14.77;;
22648;SDS011;11491;41.942;24.220;2022-12-18T03:23:32;15.13;;;9.43;;
22648;SDS011;11491;41.942;24.220;2022-12-18T03:26:05;20.55;;;9.77;;
22648;SDS011;11491;41.942;24.220;2022-12-18T03:28:38;20.15;;;10.80;;
22648;SDS011;11491;41.942;24.220;2022-12-18T03:31:11;27.80;;;14.52;;
22648;SDS011;11491;41.942;24.220;2022-12-18T03:33:41;29.95;;;17.05;;
22648;SDS011;11491;41.942;24.220;2022-12-18T03:36:13;32.25;;;19.38;;
22648;SDS011;11491;41.942;24.220;2022-12-18T03:38:41;16.20;;;10.15;;
22648;SDS011;11491;41.942;24.220;2022-12-18T03:41:12;13.02;;;8.75;;
22648;SDS011;11491;41.942;24.220;2022-12-18T03:43:49;14.98;;;9.65;;
22648;SDS011;11491;41.942;24.220;2022-12-18T03:46:24;15.65;;;10.10;;
22648;SDS011;11491;41.942;24.220;2022-12-18T03:48:58;20.52;;;13.07;;
22648;SDS011;11491;41.942;24.220;2022-12-18T03:51:30;18.58;;;12.68;;
22648;SDS011;11491;41.942;24.220;2022-12-18T03:54:06;22.63;;;13.73;;
22648;SDS011;11491;41.942;24.220;2022-12-18T03:56:51;23.98;;;16.02;;
22648;SDS011;11491;41.942;24.220;2022-12-18T03:59:35;21.20;;;16.08;;
22648;SDS011;11491;41.942;24.220;2022-12-18T04:02:06;10.32;;;7.32;;
22648;SDS011;11491;41.942;24.220;2022-12-18T04:04:34;11.25;;;5.90;;
22648;SDS011;11491;41.942;24.220;2022-12-18T04:07:04;14.38;;;6.90;;
22648;SDS011;11491;41.942;24.220;2022-12-18T04:09:32;13.93;;;8.35;;
22648;SDS011;11491;41.942;24.220;2022-12-18T04:12:01;18.70;;;11.98;;
22648;SDS011;11491;41.942;24.220;2022-12-18T04:14:32;16.38;;;10.85;;
22648;SDS011;11491;41.942;24.220;2022-12-18T04:17:16;16.58;;;11.15;;
22648;SDS011;11491;41.942;24.220;2022-12-18T04:22:24;25.42;;;15.32;;
22648;SDS011;11491;41.942;24.220;2022-12-18T04:24:57;30.20;;;17.38;;
22648;SDS011;11491;41.942;24.220;2022-12-18T04:27:26;19.58;;;12.43;;
22648;SDS011;11491;41.942;24.220;2022-12-18T04:29:55;21.23;;;14.02;;
22648;SDS011;11491;41.942;24.220;2022-12-18T04:32:24;24.05;;;13.95;;
22648;SDS011;11491;41.942;24.220;2022-12-18T04:34:52;22.33;;;14.00;;
22648;SDS011;11491;41.942;24.220;2022-12-18T04:37:20;23.10;;;12.88;;
22648;SDS011;11491;41.942;24.220;2022-12-18T04:39:47;17.92;;;10.88;;
22648;SDS011;11491;41.942;24.220;2022-12-18T04:42:14;19.00;;;12.40;;
22648;SDS011;11491;41.942;24.220;2022-12-18T04:44:46;25.23;;;14.85;;
22648;SDS011;11491;41.942;24.220;2022-12-18T04:47:14;29.08;;;18.92;;
22648;SDS011;11491;41.942;24.220;2022-12-18T04:49:46;30.50;;;19.38;;
22648;SDS011;11491;41.942;24.220;2022-12-18T04:52:14;33.47;;;22.25;;
22648;SDS011;11491;41.942;24.220;2022-12-18T04:54:44;38.97;;;24.15;;
22648;SDS011;11491;41.942;24.220;2022-12-18T04:57:19;33.17;;;20.50;;
22648;SDS011;11491;41.942;24.220;2022-12-18T04:59:46;37.25;;;22.83;;
22648;SDS011;11491;41.942;24.220;2022-12-18T05:02:13;36.80;;;22.60;;
22648;SDS011;11491;41.942;24.220;2022-12-18T05:04:40;28.67;;;17.85;;
22648;SDS011;11491;41.942;24.220;2022-12-18T05:07:09;17.40;;;11.05;;
22648;SDS011;11491;41.942;24.220;2022-12-18T05:09:37;26.50;;;17.10;;
22648;SDS011;11491;41.942;24.220;2022-12-18T05:12:14;25.58;;;18.08;;
22648;SDS011;11491;41.942;24.220;2022-12-18T05:14:47;23.77;;;15.45;;
22648;SDS011;11491;41.942;24.220;2022-12-18T05:17:15;23.70;;;15.30;;
22648;SDS011;11491;41.942;24.220;2022-12-18T05:19:42;30.33;;;18.20;;
22648;SDS011;11491;41.942;24.220;2022-12-18T05:22:11;25.85;;;16.92;;
22648;SDS011;11491;41.942;24.220;2022-12-18T05:24:39;27.00;;;17.63;;
22648;SDS011;11491;41.942;24.220;2022-12-18T05:27:07;25.00;;;16.33;;
22648;SDS011;11491;41.942;24.220;2022-12-18T05:29:34;75.18;;;36.47;;
22648;SDS011;11491;41.942;24.220;2022-12-18T05:32:01;42.33;;;25.95;;
22648;SDS011;11491;41.942;24.220;2022-12-18T05:34:28;40.38;;;26.20;;
22648;SDS011;11491;41.942;24.220;2022-12-18T05:36:58;37.28;;;24.58;;
22648;SDS011;11491;41.942;24.220;2022-12-18T05:46:18;38.00;;;29.10;;
22648;SDS011;11491;41.942;24.220;2022-12-18T06:37:35;89.88;;;63.95;;
22648;SDS011;11491;41.942;24.220;2022-12-18T06:40:04;91.65;;;63.08;;
22648;SDS011;11491;41.942;24.220;2022-12-18T06:42:32;80.65;;;56.85;;
22648;SDS011;11491;41.942;24.220;2022-12-18T06:44:59;370.90;;;287.80;;
22648;SDS011;11491;41.942;24.220;2022-12-18T06:47:25;242.52;;;154.35;;
22648;SDS011;11491;41.942;24.220;2022-12-18T06:49:52;125.97;;;92.15;;
22648;SDS011;11491;41.942;24.220;2022-12-18T06:52:24;147.00;;;99.90;;
22648;SDS011;11491;41.942;24.220;2022-12-18T06:57:26;218.65;;;141.98;;
22648;SDS011;11491;41.942;24.220;2022-12-18T06:59:53;163.57;;;110.93;;
22648;SDS011;11491;41.942;24.220;2022-12-18T07:02:21;147.88;;;103.13;;
22648;SDS011;11491;41.942;24.220;2022-12-18T07:04:48;117.85;;;84.88;;
22648;SDS011;11491;41.942;24.220;2022-12-18T07:07:16;239.13;;;145.10;;
22648;SDS011;11491;41.942;24.220;2022-12-18T07:09:44;197.13;;;127.45;;
22648;SDS011;11491;41.942;24.220;2022-12-18T07:12:11;216.02;;;134.43;;
22648;SDS011;11491;41.942;24.220;2022-12-18T07:14:38;210.80;;;133.23;;
22648;SDS011;11491;41.942;24.220;2022-12-18T07:17:05;187.63;;;120.15;;
22648;SDS011;11491;41.942;24.220;2022-12-18T07:19:32;199.57;;;123.57;;
22648;SDS011;11491;41.942;24.220;2022-12-18T07:21:59;206.90;;;130.60;;
22648;SDS011;11491;41.942;24.220;2022-12-18T07:24:27;222.57;;;143.60;;
22648;SDS011;11491;41.942;24.220;2022-12-18T07:26:55;264.38;;;189.93;;
22648;SDS011;11491;41.942;24.220;2022-12-18T07:29:22;276.10;;;182.90;;
22648;SDS011;11491;41.942;24.220;2022-12-18T07:31:49;238.55;;;164.30;;
22648;SDS011;11491;41.942;24.220;2022-12-18T07:34:16;244.73;;;163.85;;
22648;SDS011;11491;41.942;24.220;2022-12-18T07:36:43;282.00;;;179.13;;
22648;SDS011;11491;41.942;24.220;2022-12-18T07:39:10;226.35;;;152.75;;
22648;SDS011;11491;41.942;24.220;2022-12-18T07:41:37;271.23;;;179.57;;
22648;SDS011;11491;41.942;24.220;2022-12-18T07:44:10;276.08;;;169.52;;
22648;SDS011;11491;41.942;24.220;2022-12-18T07:46:37;271.90;;;163.82;;
22648;SDS011;11491;41.942;24.220;2022-12-18T07:49:04;222.88;;;145.75;;
22648;SDS011;11491;41.942;24.220;2022-12-18T07:51:31;280.30;;;179.32;;
22648;SDS011;11491;41.942;24.220;2022-12-18T07:53:58;197.02;;;131.75;;
22648;SDS011;11491;41.942;24.220;2022-12-18T07:56:26;223.55;;;146.55;;
22648;SDS011;11491;41.942;24.220;2022-12-18T07:58:53;166.68;;;117.28;;
22648;SDS011;11491;41.942;24.220;2022-12-18T08:01:21;208.30;;;132.32;;
22648;SDS011;11491;41.942;24.220;2022-12-18T08:04:03;177.63;;;117.25;;
22648;SDS011;11491;41.942;24.220;2022-12-18T08:09:22;263.77;;;175.25;;
22648;SDS011;11491;41.942;24.220;2022-12-18T08:11:54;264.83;;;168.05;;
22648;SDS011;11491;41.942;24.220;2022-12-18T08:14:21;250.23;;;168.43;;
22648;SDS011;11491;41.942;24.220;2022-12-18T08:36:16;172.07;;;98.60;;
22648;SDS011;11491;41.942;24.220;2022-12-18T08:41:19;231.02;;;131.80;;
22648;SDS011;11491;41.942;24.220;2022-12-18T08:49:05;277.45;;;154.55;;
22648;SDS011;11491;41.942;24.220;2022-12-18T08:57:00;181.30;;;108.95;;
22648;SDS011;11491;41.942;24.220;2022-12-18T08:59:29;181.32;;;92.57;;
22648;SDS011;11491;41.942;24.220;2022-12-18T09:04:57;205.68;;;115.05;;
22648;SDS011;11491;41.942;24.220;2022-12-18T09:07:34;221.18;;;129.07;;
22648;SDS011;11491;41.942;24.220;2022-12-18T09:10:20;103.78;;;59.70;;
22648;SDS011;11491;41.942;24.220;2022-12-18T09:13:08;58.35;;;34.72;;
22648;SDS011;11491;41.942;24.220;2022-12-18T09:15:45;75.10;;;47.40;;
22648;SDS011;11491;41.942;24.220;2022-12-18T09:29:27;37.75;;;25.73;;
22648;SDS011;11491;41.942;24.220;2022-12-18T09:34:58;64.13;;;39.28;;
22648;SDS011;11491;41.942;24.220;2022-12-18T09:37:28;66.40;;;38.38;;
22648;SDS011;11491;41.942;24.220;2022-12-18T09:39:55;43.78;;;28.67;;
22648;SDS011;11491;41.942;24.220;2022-12-18T09:42:35;38.97;;;23.80;;
22648;SDS011;11491;41.942;24.220;2022-12-18T09:47:50;71.10;;;50.88;;
22648;SDS011;11491;41.942;24.220;2022-12-18T11:29:09;97.80;;;37.50;;
22648;SDS011;11491;41.942;24.220;2022-12-18T11:31:43;100.53;;;36.03;;
22648;SDS011;11491;41.942;24.220;2022-12-18T11:34:11;65.65;;;31.67;;
22648;SDS011;11491;41.942;24.220;2022-12-18T11:36:44;120.32;;;30.08;;
22648;SDS011;11491;41.942;24.220;2022-12-18T11:42:05;99.60;;;37.25;;
22648;SDS011;11491;41.942;24.220;2022-12-18T11:44:45;103.25;;;37.70;;
22648;SDS011;11491;41.942;24.220;2022-12-18T11:47:21;205.52;;;37.38;;
22648;SDS011;11491;41.942;24.220;2022-12-18T11:49:55;67.22;;;34.03;;
22648;SDS011;11491;41.942;24.220;2022-12-18T11:52:26;134.27;;;35.13;;
22648;SDS011;11491;41.942;24.220;2022-12-18T11:54:59;84.40;;;35.20;;
22648;SDS011;11491;41.942;24.220;2022-12-18T11:57:31;118.65;;;46.92;;
22648;SDS011;11491;41.942;24.220;2022-12-18T12:00:09;184.82;;;82.95;;
22648;SDS011;11491;41.942;24.220;2022-12-18T12:02:47;75.20;;;30.23;;
22648;SDS011;11491;41.942;24.220;2022-12-18T12:05:31;71.72;;;27.17;;
22648;SDS011;11491;41.942;24.220;2022-12-18T12:08:12;95.97;;;41.03;;
22648;SDS011;11491;41.942;24.220;2022-12-18T12:10:48;107.13;;;61.38;;
22648;SDS011;11491;41.942;24.220;2022-12-18T12:13:29;153.88;;;46.60;;
22648;SDS011;11491;41.942;24.220;2022-12-18T12:16:09;231.32;;;80.22;;
22648;SDS011;11491;41.942;24.220;2022-12-18T12:18:47;180.43;;;71.35;;
22648;SDS011;11491;41.942;24.220;2022-12-18T12:21:26;84.63;;;43.00;;
22648;SDS011;11491;41.942;24.220;2022-12-18T12:24:01;138.02;;;68.10;;
22648;SDS011;11491;41.942;24.220;2022-12-18T12:26:35;107.30;;;41.65;;
22648;SDS011;11491;41.942;24.220;2022-12-18T12:29:16;47.42;;;29.48;;
22648;SDS011;11491;41.942;24.220;2022-12-18T12:32:00;56.10;;;33.65;;
22648;SDS011;11491;41.942;24.220;2022-12-18T12:34:44;50.22;;;34.00;;
22648;SDS011;11491;41.942;24.220;2022-12-18T12:37:25;45.58;;;30.63;;
22648;SDS011;11491;41.942;24.220;2022-12-18T12:40:05;51.10;;;29.00;;
22648;SDS011;11491;41.942;24.220;2022-12-18T12:42:47;57.83;;;38.35;;
22648;SDS011;11491;41.942;24.220;2022-12-18T12:45:28;90.63;;;32.17;;
22648;SDS011;11491;41.942;24.220;2022-12-18T12:51:08;42.80;;;22.17;;
22648;SDS011;11491;41.942;24.220;2022-12-18T12:53:44;59.97;;;23.67;;
22648;SDS011;11491;41.942;24.220;2022-12-18T12:56:13;64.07;;;29.20;;
22648;SDS011;11491;41.942;24.220;2022-12-18T12:58:48;46.53;;;26.23;;
22648;SDS011;11491;41.942;24.220;2022-12-18T13:01:26;46.40;;;22.02;;
22648;SDS011;11491;41.942;24.220;2022-12-18T13:04:02;31.65;;;17.92;;
22648;SDS011;11491;41.942;24.220;2022-12-18T13:06:42;41.13;;;19.52;;
22648;SDS011;11491;41.942;24.220;2022-12-18T13:09:12;44.08;;;20.60;;
22648;SDS011;11491;41.942;24.220;2022-12-18T13:11:39;44.92;;;26.52;;
22648;SDS011;11491;41.942;24.220;2022-12-18T13:14:29;44.63;;;30.35;;
22648;SDS011;11491;41.942;24.220;2022-12-18T13:17:17;52.42;;;30.17;;
22648;SDS011;11491;41.942;24.220;2022-12-18T13:20:03;61.08;;;40.80;;
22648;SDS011;11491;41.942;24.220;2022-12-18T13:22:35;41.05;;;26.05;;
22648;SDS011;11491;41.942;24.220;2022-12-18T13:27:59;46.67;;;24.55;;
22648;SDS011;11491;41.942;24.220;2022-12-18T13:30:42;48.42;;;24.75;;
22648;SDS011;11491;41.942;24.220;2022-12-18T13:45:43;51.13;;;28.05;;
22648;SDS011;11491;41.942;24.220;2022-12-18T13:48:20;50.53;;;32.65;;
22648;SDS011;11491;41.942;24.220;2022-12-18T13:50:50;52.92;;;31.98;;
22648;SDS011;11491;41.942;24.220;2022-12-18T13:53:22;39.40;;;25.60;;
22648;SDS011;11491;41.942;24.220;2022-12-18T13:55:55;36.28;;;24.10;;
22648;SDS011;11491;41.942;24.220;2022-12-18T13:58:39;38.22;;;28.38;;
22648;SDS011;11491;41.942;24.220;2022-12-18T14:01:15;44.88;;;28.33;;
22648;SDS011;11491;41.942;24.220;2022-12-18T14:03:49;53.70;;;36.38;;
22648;SDS011;11491;41.942;24.220;2022-12-18T14:06:34;52.70;;;37.67;;
22648;SDS011;11491;41.942;24.220;2022-12-18T14:09:05;53.53;;;33.78;;
22648;SDS011;11491;41.942;24.220;2022-12-18T14:11:47;47.78;;;31.70;;
22648;SDS011;11491;41.942;24.220;2022-12-18T14:16:52;82.10;;;54.28;;
22648;SDS011;11491;41.942;24.220;2022-12-18T14:22:11;53.03;;;35.38;;
22648;SDS011;11491;41.942;24.220;2022-12-18T14:24:41;63.85;;;45.10;;
22648;SDS011;11491;41.942;24.220;2022-12-18T14:27:12;64.45;;;46.03;;
22648;SDS011;11491;41.942;24.220;2022-12-18T14:29:47;49.58;;;34.95;;
22648;SDS011;11491;41.942;24.220;2022-12-18T14:32:16;89.65;;;57.33;;
22648;SDS011;11491;41.942;24.220;2022-12-18T14:34:45;71.80;;;48.22;;
22648;SDS011;11491;41.942;24.220;2022-12-18T14:37:13;61.20;;;39.88;;
22648;SDS011;11491;41.942;24.220;2022-12-18T14:39:51;69.75;;;45.50;;
22648;SDS011;11491;41.942;24.220;2022-12-18T14:42:20;44.17;;;26.08;;
22648;SDS011;11491;41.942;24.220;2022-12-18T14:44:47;37.55;;;26.90;;
22648;SDS011;11491;41.942;24.220;2022-12-18T14:52:43;40.03;;;28.55;;
22648;SDS011;11491;41.942;24.220;2022-12-18T14:55:14;30.23;;;23.52;;
22648;SDS011;11491;41.942;24.220;2022-12-18T15:00:18;24.90;;;17.27;;
22648;SDS011;11491;41.942;24.220;2022-12-18T15:18:25;127.28;;;80.72;;
22648;SDS011;11491;41.942;24.220;2022-12-18T15:29:01;115.53;;;66.13;;
22648;SDS011;11491;41.942;24.220;2022-12-18T15:31:57;54.90;;;38.75;;
22648;SDS011;11491;41.942;24.220;2022-12-18T15:34:27;75.45;;;51.20;;
22648;SDS011;11491;41.942;24.220;2022-12-18T15:36:55;93.22;;;52.15;;
22648;SDS011;11491;41.942;24.220;2022-12-18T15:39:30;66.20;;;41.28;;
22648;SDS011;11491;41.942;24.220;2022-12-18T15:42:13;35.72;;;23.00;;
22648;SDS011;11491;41.942;24.220;2022-12-18T15:44:58;41.55;;;26.58;;
22648;SDS011;11491;41.942;24.220;2022-12-18T15:57:59;39.67;;;23.90;;
22648;SDS011;11491;41.942;24.220;2022-12-18T16:00:26;30.80;;;21.05;;
22648;SDS011;11491;41.942;24.220;2022-12-18T16:02:54;473.30;;;269.20;;
22648;SDS011;11491;41.942;24.220;2022-12-18T16:05:21;118.80;;;67.05;;
22648;SDS011;11491;41.942;24.220;2022-12-18T16:07:49;91.55;;;65.85;;
22648;SDS011;11491;41.942;24.220;2022-12-18T16:12:52;81.72;;;53.58;;
22648;SDS011;11491;41.942;24.220;2022-12-18T16:18:22;38.95;;;27.05;;
22648;SDS011;11491;41.942;24.220;2022-12-18T16:20:50;40.88;;;27.77;;
22648;SDS011;11491;41.942;24.220;2022-12-18T16:23:20;123.90;;;78.00;;
22648;SDS011;11491;41.942;24.220;2022-12-18T16:25:56;162.63;;;102.53;;
22648;SDS011;11491;41.942;24.220;2022-12-18T16:38:56;30.90;;;21.65;;
22648;SDS011;11491;41.942;24.220;2022-12-18T16:41:23;28.77;;;19.88;;
22648;SDS011;11491;41.942;24.220;2022-12-18T16:44:00;24.75;;;17.80;;
22648;SDS011;11491;41.942;24.220;2022-12-18T16:46:33;28.90;;;20.05;;
22648;SDS011;11491;41.942;24.220;2022-12-18T16:57:23;28.23;;;17.02;;
22648;SDS011;11491;41.942;24.220;2022-12-18T17:07:28;49.33;;;31.63;;
22648;SDS011;11491;41.942;24.220;2022-12-18T17:12:55;26.45;;;18.75;;
22648;SDS011;11491;41.942;24.220;2022-12-18T17:15:22;24.27;;;15.25;;
22648;SDS011;11491;41.942;24.220;2022-12-18T17:17:49;24.45;;;14.80;;
22648;SDS011;11491;41.942;24.220;2022-12-18T17:20:17;37.17;;;26.20;;
22648;SDS011;11491;41.942;24.220;2022-12-18T17:37:40;21.00;;;12.85;;
22648;SDS011;11491;41.942;24.220;2022-12-18T17:48:34;19.83;;;12.50;;
22648;SDS011;11491;41.942;24.220;2022-12-18T17:51:01;18.50;;;11.95;;
22648;SDS011;11491;41.942;24.220;2022-12-18T17:53:30;19.67;;;13.27;;
22648;SDS011;11491;41.942;24.220;2022-12-18T17:55:58;50.30;;;36.33;;
22648;SDS011;11491;41.942;24.220;2022-12-18T17:58:26;28.50;;;19.17;;
22648;SDS011;11491;41.942;24.220;2022-12-18T18:00:54;25.00;;;17.50;;
22648;SDS011;11491;41.942;24.220;2022-12-18T18:03:21;34.55;;;23.63;;
22648;SDS011;11491;41.942;24.220;2022-12-18T18:05:48;26.83;;;15.93;;
22648;SDS011;11491;41.942;24.220;2022-12-18T18:08:39;20.35;;;12.63;;
22648;SDS011;11491;41.942;24.220;2022-12-18T18:17:03;23.13;;;15.85;;
22648;SDS011;11491;41.942;24.220;2022-12-18T18:19:32;19.85;;;12.32;;
22648;SDS011;11491;41.942;24.220;2022-12-18T18:22:13;16.77;;;11.07;;
22648;SDS011;11491;41.942;24.220;2022-12-18T18:24:49;20.58;;;14.02;;
22648;SDS011;11491;41.942;24.220;2022-12-18T18:27:20;19.38;;;12.65;;
22648;SDS011;11491;41.942;24.220;2022-12-18T18:29:47;23.20;;;12.60;;
22648;SDS011;11491;41.942;24.220;2022-12-18T18:32:14;28.20;;;17.60;;
22648;SDS011;11491;41.942;24.220;2022-12-18T18:34:41;25.08;;;15.82;;
22648;SDS011;11491;41.942;24.220;2022-12-18T18:37:08;25.08;;;18.92;;
22648;SDS011;11491;41.942;24.220;2022-12-18T18:44:59;32.05;;;22.55;;
22648;SDS011;11491;41.942;24.220;2022-12-18T18:47:27;24.05;;;17.25;;
22648;SDS011;11491;41.942;24.220;2022-12-18T18:52:43;43.08;;;29.58;;
22648;SDS011;11491;41.942;24.220;2022-12-18T18:55:10;68.60;;;45.83;;
22648;SDS011;11491;41.942;24.220;2022-12-18T19:02:50;79.50;;;50.30;;
22648;SDS011;11491;41.942;24.220;2022-12-18T19:05:18;126.32;;;67.05;;
22648;SDS011;11491;41.942;24.220;2022-12-18T19:07:46;133.55;;;66.07;;
22648;SDS011;11491;41.942;24.220;2022-12-18T19:10:17;108.72;;;58.78;;
22648;SDS011;11491;41.942;24.220;2022-12-18T19:15:40;51.20;;;27.90;;
22648;SDS011;11491;41.942;24.220;2022-12-18T19:39:16;19.20;;;11.43;;
22648;SDS011;11491;41.942;24.220;2022-12-18T19:41:44;19.20;;;10.95;;
22648;SDS011;11491;41.942;24.220;2022-12-18T19:44:10;19.20;;;11.65;;
22648;SDS011;11491;41.942;24.220;2022-12-18T19:46:38;17.77;;;11.52;;
22648;SDS011;11491;41.942;24.220;2022-12-18T19:49:06;16.25;;;10.07;;
22648;SDS011;11491;41.942;24.220;2022-12-18T19:51:33;18.10;;;11.50;;
22648;SDS011;11491;41.942;24.220;2022-12-18T19:54:00;16.33;;;10.77;;
22648;SDS011;11491;41.942;24.220;2022-12-18T19:56:29;23.83;;;14.20;;
22648;SDS011;11491;41.942;24.220;2022-12-18T19:58:58;16.67;;;11.73;;
22648;SDS011;11491;41.942;24.220;2022-12-18T20:01:29;16.90;;;11.55;;
22648;SDS011;11491;41.942;24.220;2022-12-18T20:03:57;22.23;;;15.35;;
22648;SDS011;11491;41.942;24.220;2022-12-18T20:06:25;30.65;;;11.93;;
22648;SDS011;11491;41.942;24.220;2022-12-18T20:08:56;19.17;;;12.10;;
22648;SDS011;11491;41.942;24.220;2022-12-18T20:11:24;16.70;;;10.82;;
22648;SDS011;11491;41.942;24.220;2022-12-18T20:13:52;17.65;;;11.38;;
22648;SDS011;11491;41.942;24.220;2022-12-18T20:16:19;22.42;;;13.60;;
22648;SDS011;11491;41.942;24.220;2022-12-18T20:18:47;25.08;;;16.92;;
22648;SDS011;11491;41.942;24.220;2022-12-18T20:21:14;21.63;;;14.45;;
22648;SDS011;11491;41.942;24.220;2022-12-18T20:23:41;16.92;;;10.20;;
22648;SDS011;11491;41.942;24.220;2022-12-18T20:26:08;14.98;;;9.93;;
22648;SDS011;11491;41.942;24.220;2022-12-18T20:28:34;20.75;;;14.88;;
22648;SDS011;11491;41.942;24.220;2022-12-18T20:31:03;23.00;;;14.88;;
22648;SDS011;11491;41.942;24.220;2022-12-18T20:33:32;19.92;;;13.05;;
22648;SDS011;11491;41.942;24.220;2022-12-18T20:36:00;27.33;;;15.02;;
22648;SDS011;11491;41.942;24.220;2022-12-18T20:38:27;18.70;;;12.43;;
22648;SDS011;11491;41.942;24.220;2022-12-18T20:40:54;14.10;;;9.45;;
22648;SDS011;11491;41.942;24.220;2022-12-18T20:43:21;14.35;;;8.40;;
22648;SDS011;11491;41.942;24.220;2022-12-18T20:45:48;17.33;;;10.38;;
22648;SDS011;11491;41.942;24.220;2022-12-18T20:48:16;20.77;;;13.90;;
22648;SDS011;11491;41.942;24.220;2022-12-18T20:50:43;16.25;;;10.65;;
22648;SDS011;11491;41.942;24.220;2022-12-18T20:53:09;11.65;;;7.78;;
22648;SDS011;11491;41.942;24.220;2022-12-18T20:55:39;13.45;;;7.70;;
22648;SDS011;11491;41.942;24.220;2022-12-18T20:58:07;12.90;;;7.30;;
22648;SDS011;11491;41.942;24.220;2022-12-18T21:00:33;12.38;;;8.05;;
22648;SDS011;11491;41.942;24.220;2022-12-18T21:03:00;12.82;;;8.18;;
22648;SDS011;11491;41.942;24.220;2022-12-18T21:05:28;10.73;;;6.55;;
22648;SDS011;11491;41.942;24.220;2022-12-18T21:07:55;17.33;;;13.27;;
22648;SDS011;11491;41.942;24.220;2022-12-18T21:10:22;15.55;;;12.60;;
22648;SDS011;11491;41.942;24.220;2022-12-18T21:12:49;19.38;;;11.48;;
22648;SDS011;11491;41.942;24.220;2022-12-18T21:15:15;16.58;;;10.73;;
22648;SDS011;11491;41.942;24.220;2022-12-18T21:17:42;21.60;;;12.88;;
22648;SDS011;11491;41.942;24.220;2022-12-18T21:20:09;30.45;;;19.85;;
22648;SDS011;11491;41.942;24.220;2022-12-18T21:22:38;29.23;;;21.13;;
22648;SDS011;11491;41.942;24.220;2022-12-18T21:25:05;17.58;;;12.45;;
22648;SDS011;11491;41.942;24.220;2022-12-18T21:27:33;26.92;;;19.77;;
22648;SDS011;11491;41.942;24.220;2022-12-18T21:30:00;15.52;;;11.35;;
22648;SDS011;11491;41.942;24.220;2022-12-18T21:32:29;13.75;;;9.55;;
22648;SDS011;11491;41.942;24.220;2022-12-18T21:34:56;21.00;;;14.35;;
22648;SDS011;11491;41.942;24.220;2022-12-18T21:37:23;11.27;;;7.15;;
22648;SDS011;11491;41.942;24.220;2022-12-18T21:39:51;12.48;;;8.43;;
22648;SDS011;11491;41.942;24.220;2022-12-18T21:42:18;11.38;;;8.55;;
22648;SDS011;11491;41.942;24.220;2022-12-18T21:45:16;12.25;;;7.80;;
22648;SDS011;11491;41.942;24.220;2022-12-18T21:47:44;13.07;;;7.72;;
22648;SDS011;11491;41.942;24.220;2022-12-18T21:50:11;26.10;;;11.35;;
22648;SDS011;11491;41.942;24.220;2022-12-18T21:52:38;14.43;;;7.82;;
22648;SDS011;11491;41.942;24.220;2022-12-18T21:55:07;11.07;;;5.93;;
22648;SDS011;11491;41.942;24.220;2022-12-18T21:57:35;10.20;;;5.65;;
22648;SDS011;11491;41.942;24.220;2022-12-18T22:00:03;16.67;;;6.97;;
22648;SDS011;11491;41.942;24.220;2022-12-18T22:02:31;14.52;;;7.28;;
22648;SDS011;11491;41.942;24.220;2022-12-18T22:04:58;15.20;;;7.60;;
22648;SDS011;11491;41.942;24.220;2022-12-18T22:07:25;11.57;;;5.82;;
22648;SDS011;11491;41.942;24.220;2022-12-18T22:09:53;15.15;;;10.40;;
22648;SDS011;11491;41.942;24.220;2022-12-18T22:12:21;14.77;;;9.40;;
22648;SDS011;11491;41.942;24.220;2022-12-18T22:15:00;18.38;;;10.02;;
22648;SDS011;11491;41.942;24.220;2022-12-18T22:17:27;16.55;;;9.85;;
22648;SDS011;11491;41.942;24.220;2022-12-18T22:19:54;17.10;;;10.77;;
22648;SDS011;11491;41.942;24.220;2022-12-18T22:22:21;18.73;;;12.35;;
22648;SDS011;11491;41.942;24.220;2022-12-18T22:24:47;17.15;;;10.68;;
22648;SDS011;11491;41.942;24.220;2022-12-18T22:27:14;15.63;;;10.63;;
22648;SDS011;11491;41.942;24.220;2022-12-18T22:29:42;18.30;;;10.32;;
22648;SDS011;11491;41.942;24.220;2022-12-18T22:32:27;14.85;;;9.95;;
22648;SDS011;11491;41.942;24.220;2022-12-18T22:34:53;14.75;;;8.82;;
22648;SDS011;11491;41.942;24.220;2022-12-18T22:37:20;13.18;;;8.05;;
22648;SDS011;11491;41.942;24.220;2022-12-18T22:39:47;14.60;;;9.10;;
22648;SDS011;11491;41.942;24.220;2022-12-18T22:42:13;13.60;;;8.15;;
22648;SDS011;11491;41.942;24.220;2022-12-18T22:44:40;16.15;;;8.77;;
22648;SDS011;11491;41.942;24.220;2022-12-18T22:47:09;14.50;;;8.88;;
22648;SDS011;11491;41.942;24.220;2022-12-18T22:49:36;19.30;;;9.88;;
22648;SDS011;11491;41.942;24.220;2022-12-18T22:52:04;16.20;;;9.45;;
22648;SDS011;11491;41.942;24.220;2022-12-18T22:54:33;16.63;;;11.27;;